createdAt,value
2023-04-09T00:02:16.362Z,83.61
2023-04-09T00:04:43.998Z,84.37
2023-04-09T00:07:11.495Z,84.23
2023-04-09T00:09:39.092Z,84.56
2023-04-09T00:12:06.400Z,84.67
2023-04-09T00:14:33.952Z,85.22
2023-04-09T00:17:01.261Z,85.06
2023-04-09T00:19:28.810Z,85.07
2023-04-09T00:21:56.246Z,85.12
2023-04-09T00:24:23.780Z,85.13
2023-04-09T00:26:51.414Z,85.47
2023-04-09T00:29:19.114Z,85.79
2023-04-09T00:31:46.428Z,85.64
2023-04-09T00:34:14.142Z,85.98
2023-04-09T00:36:41.382Z,86.00
2023-04-09T00:39:08.909Z,85.92
2023-04-09T00:41:36.197Z,85.87
2023-04-09T00:44:03.822Z,86.40
2023-04-09T00:46:32.651Z,86.54
2023-04-09T00:49:00.299Z,86.18
2023-04-09T00:51:28.725Z,86.02
2023-04-09T00:53:56.822Z,85.96
2023-04-09T00:56:25.646Z,86.63
2023-04-09T00:58:54.339Z,87.57
2023-04-09T01:01:21.833Z,88.11
2023-04-09T01:03:49.621Z,88.12
2023-04-09T01:06:48.206Z,88.56
2023-04-09T01:09:30.344Z,88.42
2023-04-09T01:12:16.279Z,88.54
2023-04-09T01:15:10.025Z,88.14
2023-04-09T01:18:31.510Z,87.77
2023-04-09T01:21:06.968Z,87.80
2023-04-09T01:23:58.157Z,87.44
2023-04-09T01:27:06.919Z,87.50
2023-04-09T01:29:41.492Z,87.14
2023-04-09T01:32:10.758Z,87.20
2023-04-09T01:34:39.091Z,87.17
2023-04-09T01:37:08.512Z,86.88
2023-04-09T01:39:38.652Z,86.75
2023-04-09T01:42:11.231Z,86.46
2023-04-09T01:44:45.461Z,86.20
2023-04-09T01:47:13.836Z,86.21
2023-04-09T01:49:44.895Z,85.98
2023-04-09T01:52:12.779Z,86.09
2023-04-09T01:54:40.031Z,85.84
2023-04-09T01:57:07.722Z,85.69
2023-04-09T01:59:34.970Z,85.37
2023-04-09T02:02:17.578Z,85.37
2023-04-09T02:04:51.637Z,85.28
2023-04-09T02:07:27.198Z,85.09
2023-04-09T02:09:56.243Z,84.97
2023-04-09T02:12:27.213Z,84.74
2023-04-09T02:14:55.261Z,84.63
2023-04-09T02:17:22.928Z,84.70
2023-04-09T02:19:50.943Z,84.74
2023-04-09T02:22:19.053Z,84.97
2023-04-09T02:24:47.235Z,84.96
2023-04-09T02:27:14.905Z,84.72
2023-04-09T02:29:43.723Z,84.89
2023-04-09T02:32:11.229Z,85.14
2023-04-09T02:34:38.528Z,85.07
2023-04-09T02:37:06.093Z,85.14
2023-04-09T02:39:33.461Z,84.97
2023-04-09T02:42:01.405Z,84.82
2023-04-09T02:44:28.722Z,84.86
2023-04-09T02:46:56.377Z,84.87
2023-04-09T02:49:23.690Z,84.73
2023-04-09T02:51:51.188Z,84.53
2023-04-09T02:54:18.448Z,84.54
2023-04-09T02:56:45.964Z,84.51
2023-04-09T02:59:13.197Z,84.57
2023-04-09T03:01:41.128Z,84.50
2023-04-09T03:04:08.594Z,84.49
2023-04-09T03:06:36.218Z,84.47
2023-04-09T03:09:03.568Z,84.22
2023-04-09T03:11:32.237Z,84.23
2023-04-09T03:13:59.461Z,84.25
2023-04-09T03:16:27.085Z,84.28
2023-04-09T03:18:54.469Z,84.38
2023-04-09T03:21:22.174Z,84.12
2023-04-09T03:23:49.428Z,84.09
2023-04-09T03:26:16.987Z,83.85
2023-04-09T03:28:44.210Z,83.48
2023-04-09T03:31:11.780Z,83.78
2023-04-09T03:33:38.998Z,83.67
2023-04-09T03:36:06.727Z,83.81
2023-04-09T03:38:33.991Z,83.54
2023-04-09T03:41:01.459Z,83.68
2023-04-09T03:43:28.690Z,84.00
2023-04-09T03:45:56.310Z,84.05
2023-04-09T03:48:23.541Z,84.01
2023-04-09T03:50:51.133Z,83.93
2023-04-09T03:53:18.364Z,83.95
2023-04-09T03:55:46.472Z,84.03
2023-04-09T03:58:13.730Z,84.16
2023-04-09T04:00:41.371Z,84.32
2023-04-09T04:03:08.748Z,84.66
2023-04-09T04:05:36.407Z,84.53
2023-04-09T04:08:03.617Z,84.34
2023-04-09T04:10:31.169Z,84.52
2023-04-09T04:12:58.442Z,84.55
2023-04-09T04:15:26.045Z,84.52
2023-04-09T04:17:53.438Z,84.41
2023-04-09T04:20:21.617Z,84.32
2023-04-09T04:22:48.831Z,84.30
2023-04-09T04:25:16.444Z,84.32
2023-04-09T04:27:43.676Z,84.41
2023-04-09T04:30:11.418Z,84.57
2023-04-09T04:32:38.785Z,84.58
2023-04-09T04:35:06.776Z,84.15
2023-04-09T04:37:34.232Z,84.12
2023-04-09T04:40:04.379Z,84.26
2023-04-09T04:42:31.723Z,84.12
2023-04-09T04:44:59.451Z,83.93
2023-04-09T04:47:26.882Z,83.79
2023-04-09T04:49:54.646Z,83.57
2023-04-09T04:52:21.976Z,83.35
2023-04-09T04:54:49.507Z,83.25
2023-04-09T04:57:16.767Z,82.97
2023-04-09T04:59:44.426Z,82.66
2023-04-09T05:02:11.839Z,82.60
2023-04-09T05:04:39.763Z,82.93
2023-04-09T05:07:07.287Z,82.88
2023-04-09T05:09:34.792Z,82.91
2023-04-09T05:12:02.546Z,82.57
2023-04-09T05:14:30.097Z,82.33
2023-04-09T05:16:57.373Z,82.48
2023-04-09T05:19:25.016Z,82.66
2023-04-09T05:21:52.322Z,82.57
2023-04-09T05:24:19.919Z,82.70
2023-04-09T05:26:47.067Z,82.44
2023-04-09T05:29:14.720Z,82.63
2023-04-09T05:31:43.169Z,82.70
2023-04-09T05:34:10.794Z,82.75
2023-04-09T05:36:38.031Z,82.73
2023-04-09T05:39:05.589Z,82.58
2023-04-09T05:41:33.716Z,82.60
2023-04-09T05:44:01.372Z,82.82
2023-04-09T05:46:29.261Z,82.94
2023-04-09T05:48:56.797Z,83.28
2023-04-09T05:51:24.143Z,82.49
2023-04-09T05:53:51.875Z,82.66
2023-04-09T05:56:19.574Z,82.32
2023-04-09T05:58:47.741Z,82.44
2023-04-09T06:01:15.464Z,81.98
2023-04-09T06:03:44.004Z,81.70
2023-04-09T06:06:11.501Z,81.66
2023-04-09T06:08:39.265Z,81.79
2023-04-09T06:11:10.579Z,81.57
2023-04-09T06:13:38.857Z,81.44
2023-04-09T06:16:10.350Z,81.30
2023-04-09T06:18:37.963Z,81.52
2023-04-09T06:21:07.729Z,81.99
2023-04-09T06:23:37.194Z,81.81
2023-04-09T06:26:04.499Z,81.48
2023-04-09T06:28:32.448Z,81.65
2023-04-09T06:30:59.830Z,81.32
2023-04-09T06:33:27.650Z,80.73
2023-04-09T06:35:54.933Z,80.19
2023-04-09T06:38:22.502Z,79.49
2023-04-09T06:40:49.848Z,79.23
2023-04-09T06:43:17.353Z,78.87
2023-04-09T06:45:44.649Z,78.28
2023-04-09T06:48:12.222Z,78.12
2023-04-09T06:50:39.614Z,77.89
2023-04-09T06:53:07.661Z,77.66
2023-04-09T06:55:34.924Z,77.37
2023-04-09T06:58:02.915Z,77.02
2023-04-09T07:00:30.177Z,76.74
2023-04-09T07:02:57.956Z,76.02
2023-04-09T07:05:25.484Z,75.70
2023-04-09T07:07:53.226Z,74.97
2023-04-09T07:10:20.491Z,74.77
2023-04-09T07:12:48.213Z,74.74
2023-04-09T07:15:15.533Z,73.49
2023-04-09T07:17:43.310Z,73.32
2023-04-09T07:20:11.403Z,73.41
2023-04-09T07:22:39.275Z,73.51
2023-04-09T07:25:07.499Z,73.92
2023-04-09T07:27:35.944Z,74.18
2023-04-09T07:30:04.588Z,74.25
2023-04-09T07:32:32.306Z,74.64
2023-04-09T07:34:59.813Z,74.64
2023-04-09T07:37:27.592Z,74.53
2023-04-09T07:39:54.927Z,74.71
2023-04-09T07:42:22.842Z,75.13
2023-04-09T07:44:50.466Z,74.99
2023-04-09T07:47:18.257Z,75.46
2023-04-09T07:49:45.660Z,76.54
2023-04-09T07:52:13.329Z,76.88
2023-04-09T07:54:40.732Z,76.56
2023-04-09T07:57:08.413Z,75.90
2023-04-09T07:59:36.538Z,74.86
2023-04-09T08:02:04.378Z,74.88
2023-04-09T08:04:32.243Z,74.96
2023-04-09T08:07:00.104Z,74.99
2023-04-09T08:09:27.425Z,74.82
2023-04-09T08:11:55.090Z,75.29
2023-04-09T08:14:22.385Z,75.12
2023-04-09T08:16:50.682Z,74.66
2023-04-09T08:19:20.317Z,74.06
2023-04-09T08:21:51.476Z,73.28
2023-04-09T08:24:18.890Z,72.53
2023-04-09T08:26:47.151Z,72.15
2023-04-09T08:29:15.656Z,71.38
2023-04-09T08:31:43.311Z,71.63
2023-04-09T08:34:10.722Z,71.78
2023-04-09T08:36:38.349Z,71.86
2023-04-09T08:39:05.740Z,71.72
2023-04-09T08:41:35.029Z,71.58
2023-04-09T08:44:02.804Z,71.58
2023-04-09T08:46:30.580Z,71.54
2023-04-09T08:48:57.917Z,72.22
2023-04-09T08:51:25.870Z,73.82
2023-04-09T08:54:03.934Z,73.45
2023-04-09T08:56:32.655Z,72.41
2023-04-09T08:58:59.989Z,72.37
2023-04-09T09:01:30.041Z,72.50
2023-04-09T09:04:00.451Z,72.20
2023-04-09T09:06:33.133Z,72.11
2023-04-09T09:09:21.217Z,71.96
2023-04-09T09:11:52.633Z,71.94
2023-04-09T09:14:20.570Z,72.10
2023-04-09T09:16:56.940Z,71.73
2023-04-09T09:19:27.316Z,71.69
2023-04-09T09:22:00.679Z,71.35
2023-04-09T09:24:28.851Z,71.21
2023-04-09T09:26:57.627Z,70.70
2023-04-09T09:29:26.205Z,70.64
2023-04-09T09:31:56.296Z,70.18
2023-04-09T09:34:25.485Z,69.72
2023-04-09T09:36:53.339Z,68.72
2023-04-09T09:39:22.153Z,68.65
2023-04-09T09:42:08.337Z,67.98
2023-04-09T09:44:35.937Z,67.22
2023-04-09T09:47:05.193Z,66.59
2023-04-09T09:49:32.665Z,65.89
2023-04-09T09:52:03.568Z,64.56
2023-04-09T09:54:43.264Z,64.13
2023-04-09T09:57:14.899Z,63.82
2023-04-09T09:59:52.173Z,63.78
2023-04-09T10:02:24.103Z,64.80
2023-04-09T10:04:55.441Z,64.96
2023-04-09T10:07:24.434Z,65.39
2023-04-09T10:09:54.425Z,65.32
2023-04-09T10:12:27.299Z,64.29
2023-04-09T10:14:56.697Z,64.16
2023-04-09T10:17:24.485Z,63.85
2023-04-09T10:20:49.029Z,63.20
2023-04-09T10:23:31.534Z,61.78
2023-04-09T10:25:58.807Z,62.17
2023-04-09T10:28:26.331Z,61.49
2023-04-09T10:30:55.135Z,61.75
2023-04-09T10:33:29.238Z,60.58
2023-04-09T10:36:04.721Z,57.13
2023-04-09T10:38:38.512Z,54.26
2023-04-09T10:41:42.282Z,52.23
2023-04-09T10:44:35.507Z,50.60
2023-04-09T10:47:04.625Z,48.02
2023-04-09T10:49:42.675Z,49.10
2023-04-09T10:52:13.838Z,50.85
2023-04-09T10:54:46.470Z,51.30
2023-04-09T10:57:16.700Z,48.44
2023-04-09T10:59:55.251Z,46.09
2023-04-09T11:02:40.785Z,47.23
2023-04-09T11:05:32.667Z,45.43
2023-04-09T11:08:09.831Z,45.09
2023-04-09T11:10:44.075Z,40.00
2023-04-09T11:13:17.631Z,37.61
2023-04-09T11:15:46.158Z,38.74
2023-04-09T11:18:23.133Z,28.44
2023-04-09T11:20:58.246Z,23.95
2023-04-09T11:23:26.932Z,27.99
2023-04-09T11:25:55.899Z,29.09
2023-04-09T11:28:24.455Z,26.62
2023-04-09T11:30:53.209Z,27.61
2023-04-09T11:33:20.980Z,28.46
2023-04-09T11:35:49.248Z,28.86
2023-04-09T11:38:16.727Z,29.59
2023-04-09T11:40:48.880Z,29.44
2023-04-09T11:43:17.954Z,30.85
2023-04-09T11:45:49.448Z,27.96
2023-04-09T11:48:23.419Z,28.09
2023-04-09T11:50:51.552Z,29.20
2023-04-09T11:53:22.127Z,24.51
2023-04-09T11:55:53.759Z,19.69
2023-04-09T11:58:26.573Z,18.92
2023-04-09T12:00:58.044Z,16.15
2023-04-09T12:03:36.929Z,15.03
2023-04-09T12:06:07.132Z,13.80
2023-04-09T12:08:36.337Z,11.62
2023-04-09T12:11:12.832Z,12.02
2023-04-09T12:13:44.649Z,12.10
2023-04-09T12:16:13.937Z,13.13
2023-04-09T12:18:41.566Z,15.13
2023-04-09T12:21:09.225Z,15.34
2023-04-09T12:23:36.632Z,16.43
2023-04-09T12:26:04.454Z,17.97
2023-04-09T12:28:31.745Z,19.67
2023-04-09T12:30:59.749Z,18.62
2023-04-09T12:33:27.346Z,18.09
2023-04-09T12:35:58.437Z,20.36
2023-04-09T12:38:26.887Z,21.10
2023-04-09T12:40:54.591Z,22.09
2023-04-09T12:43:21.935Z,23.90
2023-04-09T12:45:49.585Z,25.49
2023-04-09T12:48:16.821Z,26.67
2023-04-09T12:50:44.723Z,27.79
2023-04-09T12:53:12.032Z,28.70
2023-04-09T12:55:41.550Z,29.24
2023-04-09T12:58:10.009Z,29.67
2023-04-09T13:00:37.734Z,30.03
2023-04-09T13:03:05.113Z,28.00
2023-04-09T13:05:35.560Z,28.00
2023-04-09T13:08:03.604Z,28.69
2023-04-09T13:10:31.713Z,29.55
2023-04-09T13:12:59.188Z,29.89
2023-04-09T13:15:27.501Z,30.46
2023-04-09T13:17:55.773Z,30.89
2023-04-09T13:20:23.556Z,31.76
2023-04-09T13:22:51.098Z,32.56
2023-04-09T13:25:18.748Z,33.21
2023-04-09T13:27:46.143Z,33.86
2023-04-09T13:30:13.946Z,35.06
2023-04-09T13:32:41.482Z,34.94
2023-04-09T13:35:10.430Z,35.15
2023-04-09T13:37:37.726Z,35.05
2023-04-09T13:40:06.549Z,34.67
2023-04-09T13:42:33.794Z,33.74
2023-04-09T13:45:01.588Z,34.16
2023-04-09T13:47:28.927Z,34.30
2023-04-09T13:49:56.562Z,34.91
2023-04-09T13:52:26.752Z,35.85
2023-04-09T13:54:56.879Z,36.21
2023-04-09T13:57:24.151Z,36.91
2023-04-09T13:59:51.733Z,37.77
2023-04-09T14:02:19.375Z,38.36
2023-04-09T14:04:47.280Z,38.54
2023-04-09T14:07:14.580Z,38.99
2023-04-09T14:09:42.167Z,39.40
2023-04-09T14:12:09.466Z,39.48
2023-04-09T14:14:36.977Z,39.40
2023-04-09T14:17:04.822Z,39.17
2023-04-09T14:19:32.447Z,39.45
2023-04-09T14:21:59.777Z,39.42
2023-04-09T14:24:27.317Z,39.10
2023-04-09T14:26:54.616Z,39.19
2023-04-09T14:29:22.227Z,39.63
2023-04-09T14:31:49.725Z,38.43
2023-04-09T14:34:17.594Z,37.23
2023-04-09T14:36:44.923Z,35.29
2023-04-09T14:39:12.466Z,34.89
2023-04-09T14:41:39.905Z,34.83
2023-04-09T14:44:07.703Z,34.44
2023-04-09T14:46:36.731Z,35.72
2023-04-09T14:49:04.426Z,34.56
2023-04-09T14:51:31.911Z,34.85
2023-04-09T14:53:59.677Z,33.84
2023-04-09T14:56:27.247Z,33.55
2023-04-09T14:58:54.997Z,34.36
2023-04-09T15:01:22.858Z,34.65
2023-04-09T15:03:50.849Z,34.88
2023-04-09T15:06:18.347Z,35.55
2023-04-09T15:08:46.046Z,36.54
2023-04-09T15:11:17.755Z,36.94
2023-04-09T15:13:45.818Z,36.99
2023-04-09T15:16:23.364Z,36.91
2023-04-09T15:18:52.641Z,36.88
2023-04-09T15:21:20.863Z,37.80
2023-04-09T15:23:51.498Z,37.65
2023-04-09T15:26:19.196Z,37.50
2023-04-09T15:28:46.829Z,37.81
2023-04-09T15:31:14.170Z,38.43
2023-04-09T15:33:44.902Z,38.06
2023-04-09T15:36:12.211Z,38.20
2023-04-09T15:38:39.759Z,38.82
2023-04-09T15:41:07.127Z,38.19
2023-04-09T15:43:34.656Z,37.81
2023-04-09T15:46:11.667Z,38.07
2023-04-09T15:48:39.308Z,38.18
2023-04-09T15:51:06.757Z,38.72
2023-04-09T15:53:34.450Z,39.03
2023-04-09T15:56:02.347Z,39.48
2023-04-09T15:58:29.939Z,39.33
2023-04-09T16:00:57.377Z,39.28
2023-04-09T16:03:25.048Z,39.28
2023-04-09T16:05:52.387Z,40.52
2023-04-09T16:08:19.897Z,41.09
2023-04-09T16:10:47.137Z,41.91
2023-04-09T16:13:14.655Z,42.42
2023-04-09T16:15:41.901Z,43.12
2023-04-09T16:18:10.294Z,44.56
2023-04-09T16:20:37.684Z,44.89
2023-04-09T16:23:05.464Z,44.95
2023-04-09T16:25:32.699Z,46.13
2023-04-09T16:28:00.263Z,46.77
2023-04-09T16:30:27.620Z,46.61
2023-04-09T16:32:55.436Z,47.05
2023-04-09T16:35:22.813Z,47.65
2023-04-09T16:37:51.960Z,47.88
2023-04-09T16:40:24.254Z,48.87
2023-04-09T16:42:51.811Z,48.82
2023-04-09T16:45:19.105Z,49.99
2023-04-09T16:47:50.823Z,51.30
2023-04-09T16:50:20.732Z,51.49
2023-04-09T16:52:48.682Z,51.91
2023-04-09T16:55:16.758Z,52.49
2023-04-09T16:57:44.291Z,52.83
2023-04-09T17:00:12.987Z,53.14
2023-04-09T17:02:40.682Z,52.92
2023-04-09T17:05:09.030Z,53.47
2023-04-09T17:07:36.596Z,54.91
2023-04-09T17:10:04.326Z,54.78
2023-04-09T17:12:32.570Z,55.40
2023-04-09T17:15:00.710Z,55.63
2023-04-09T17:17:28.307Z,56.10
2023-04-09T17:19:56.648Z,56.81
2023-04-09T17:22:24.224Z,58.28
2023-04-09T17:24:52.833Z,58.31
2023-04-09T17:27:20.669Z,58.32
2023-04-09T17:29:48.003Z,58.28
2023-04-09T17:32:15.605Z,58.70
2023-04-09T17:34:46.730Z,58.86
2023-04-09T17:37:14.268Z,58.99
2023-04-09T17:39:41.640Z,59.30
2023-04-09T17:42:11.825Z,59.41
2023-04-09T17:44:39.577Z,59.56
2023-04-09T17:47:07.587Z,59.84
2023-04-09T17:49:34.976Z,60.00
2023-04-09T17:52:02.547Z,60.41
2023-04-09T17:54:36.827Z,60.35
2023-04-09T17:57:04.829Z,60.43
2023-04-09T17:59:33.256Z,60.44
2023-04-09T18:02:01.481Z,60.77
2023-04-09T18:04:29.278Z,61.70
2023-04-09T18:06:57.044Z,62.14
2023-04-09T18:09:24.354Z,62.06
2023-04-09T18:11:56.539Z,62.18
2023-04-09T18:14:24.330Z,62.43
2023-04-09T18:16:51.993Z,62.91
2023-04-09T18:19:19.384Z,63.00
2023-04-09T18:21:46.911Z,63.94
2023-04-09T18:24:14.172Z,64.32
2023-04-09T18:26:41.796Z,65.43
2023-04-09T18:29:09.097Z,64.97
2023-04-09T18:31:36.842Z,65.02
2023-04-09T18:34:04.178Z,65.59
2023-04-09T18:36:31.746Z,65.63
2023-04-09T18:38:59.049Z,65.68
2023-04-09T18:41:27.421Z,66.57
2023-04-09T18:43:55.196Z,67.27
2023-04-09T18:46:23.986Z,67.23
2023-04-09T18:48:51.897Z,68.45
2023-04-09T18:51:21.197Z,68.14
2023-04-09T18:53:54.639Z,68.59
2023-04-09T18:56:22.393Z,68.37
2023-04-09T18:58:51.882Z,68.50
2023-04-09T19:01:23.243Z,68.58
2023-04-09T19:03:50.822Z,68.99
2023-04-09T19:06:20.245Z,69.19
2023-04-09T19:08:50.154Z,69.50
2023-04-09T19:11:17.709Z,69.95
2023-04-09T19:13:44.949Z,70.06
2023-04-09T19:16:12.517Z,70.18
2023-04-09T19:18:39.777Z,70.49
2023-04-09T19:21:08.239Z,70.64
2023-04-09T19:23:35.900Z,70.91
2023-04-09T19:26:05.623Z,71.49
2023-04-09T19:28:32.890Z,71.19
2023-04-09T19:31:02.888Z,71.09
2023-04-09T19:33:30.924Z,72.24
2023-04-09T19:35:58.554Z,72.50
2023-04-09T19:38:25.835Z,73.08
2023-04-09T19:40:53.373Z,73.38
2023-04-09T19:43:21.073Z,74.16
2023-04-09T19:45:48.617Z,74.16
2023-04-09T19:48:16.133Z,75.07
2023-04-09T19:50:45.322Z,75.16
2023-04-09T19:53:12.594Z,74.87
2023-04-09T19:55:40.696Z,75.09
2023-04-09T19:58:07.948Z,75.45
2023-04-09T20:00:35.493Z,75.95
2023-04-09T20:03:03.302Z,75.58
2023-04-09T20:05:31.059Z,75.47
2023-04-09T20:07:58.372Z,75.62
2023-04-09T20:10:26.124Z,75.85
2023-04-09T20:12:54.046Z,76.10
2023-04-09T20:15:21.844Z,76.37
2023-04-09T20:17:50.663Z,77.09
2023-04-09T20:20:20.593Z,76.86
2023-04-09T20:22:56.258Z,77.23
2023-04-09T20:25:25.829Z,77.39
2023-04-09T20:27:54.383Z,78.10
2023-04-09T20:30:22.718Z,78.31
2023-04-09T20:32:50.150Z,79.05
2023-04-09T20:35:17.796Z,79.38
2023-04-09T20:37:45.156Z,79.65
2023-04-09T20:40:12.936Z,79.83
2023-04-09T20:42:44.314Z,80.12
2023-04-09T20:45:12.046Z,80.06
2023-04-09T20:47:39.338Z,80.13
2023-04-09T20:50:07.795Z,79.90
2023-04-09T20:52:35.171Z,80.46
2023-04-09T20:55:02.734Z,80.70
2023-04-09T20:57:30.001Z,80.96
2023-04-09T20:59:57.721Z,80.82
2023-04-09T21:02:25.660Z,81.28
2023-04-09T21:04:53.497Z,81.11
2023-04-09T21:07:20.879Z,81.18
2023-04-09T21:09:49.015Z,80.85
2023-04-09T21:12:16.339Z,81.29
2023-04-09T21:14:43.897Z,81.79
2023-04-09T21:17:11.162Z,81.48
2023-04-09T21:19:38.744Z,82.03
2023-04-09T21:22:06.029Z,82.49
2023-04-09T21:24:35.330Z,82.20
2023-04-09T21:27:06.818Z,83.17
2023-04-09T21:29:35.055Z,84.09
2023-04-09T21:32:02.953Z,84.41
2023-04-09T21:34:31.542Z,85.58
2023-04-09T21:36:58.954Z,86.30
2023-04-09T21:39:26.512Z,87.33
2023-04-09T21:41:53.745Z,87.47
2023-04-09T21:44:21.395Z,87.71
2023-04-09T21:46:48.772Z,87.28
2023-04-09T21:49:16.579Z,86.49
2023-04-09T21:51:46.637Z,86.89
2023-04-09T21:54:14.380Z,87.42
2023-04-09T21:56:41.639Z,87.85
2023-04-09T21:59:09.192Z,87.45
2023-04-09T22:01:36.548Z,86.55
2023-04-09T22:04:04.581Z,86.34
2023-04-09T22:06:32.334Z,86.09
2023-04-09T22:09:00.203Z,86.21
2023-04-09T22:11:28.878Z,86.23
2023-04-09T22:13:57.618Z,86.70
2023-04-09T22:16:26.124Z,86.99
2023-04-09T22:18:54.857Z,88.10
2023-04-09T22:21:22.613Z,87.82
2023-04-09T22:23:50.156Z,87.48
2023-04-09T22:26:17.511Z,87.24
2023-04-09T22:28:45.078Z,87.87
2023-04-09T22:31:12.618Z,88.14
2023-04-09T22:33:40.551Z,87.71
2023-04-09T22:36:08.300Z,87.35
2023-04-09T22:38:36.243Z,87.41
2023-04-09T22:41:03.613Z,87.95
2023-04-09T22:43:31.734Z,88.79
2023-04-09T22:45:58.949Z,88.23
2023-04-09T22:48:26.451Z,89.13
2023-04-09T22:50:53.718Z,89.49
2023-04-09T22:53:21.830Z,89.75
2023-04-09T22:55:51.651Z,89.02
2023-04-09T22:58:19.463Z,88.85
2023-04-09T23:00:47.625Z,88.74
2023-04-09T23:03:15.977Z,88.40
2023-04-09T23:05:43.906Z,88.41
2023-04-09T23:08:11.618Z,88.20
2023-04-09T23:10:38.902Z,88.02
2023-04-09T23:13:06.552Z,88.23
2023-04-09T23:15:34.185Z,87.87
2023-04-09T23:18:01.762Z,88.03
2023-04-09T23:20:30.013Z,88.16
2023-04-09T23:22:57.536Z,88.59
2023-04-09T23:25:24.797Z,88.40
2023-04-09T23:27:52.324Z,88.52
2023-04-09T23:30:21.649Z,88.35
2023-04-09T23:32:49.420Z,88.36
2023-04-09T23:35:16.816Z,88.38
2023-04-09T23:37:44.461Z,88.22
2023-04-09T23:40:12.619Z,88.28
2023-04-09T23:42:40.258Z,88.26
2023-04-09T23:45:08.316Z,88.52
2023-04-09T23:47:38.046Z,88.05
2023-04-09T23:50:07.975Z,87.78
2023-04-09T23:52:38.453Z,87.98
2023-04-09T23:55:10.865Z,87.70
2023-04-09T23:57:39.612Z,87.91
